Time;durP1;ratioP1;P1;durP2;ratioP2;P2;SDS_P1;SDS_P2;PMS_P1;PMS_P2;Temp;Humidity;BMP_temperature;BMP_pressure;BME280_temperature;BME280_humidity;BME280_pressure;Samples;Min_cycle;Max_cycle;Signal;HPM_P1;HPM_P2
2023/02/02 05:02:40;;;;;;;0.38;0.38;;;5.20;99.90;;;;;;4893387;29;20212;-68
2023/02/02 05:05:09;;;;;;;0.20;0.20;;;5.30;99.90;;;;;;4898993;29;20208;-65
2023/02/02 05:07:36;;;;;;;0.47;0.30;;;5.30;99.90;;;;;;4900597;29;20549;-66
2023/02/02 05:10:03;;;;;;;1.48;0.65;;;5.40;99.90;;;;;;4900660;29;20729;-67
2023/02/02 05:12:30;;;;;;;0.30;0.30;;;5.40;99.90;;;;;;4899410;29;20231;-67
2023/02/02 05:14:59;;;;;;;0.20;0.20;;;5.40;99.90;;;;;;4937844;23;20230;-68
2023/02/02 05:17:26;;;;;;;0.10;0.10;;;5.40;99.90;;;;;;4936753;29;20233;-70
2023/02/02 05:19:54;;;;;;;0.73;0.63;;;5.30;99.90;;;;;;4935777;29;20303;-68
2023/02/02 05:22:21;;;;;;;0.65;0.65;;;5.30;99.90;;;;;;4936971;29;20534;-68
2023/02/02 05:24:48;;;;;;;0.45;0.43;;;5.30;99.90;;;;;;4935834;29;20609;-69
2023/02/02 05:27:14;;;;;;;14.48;1.20;;;5.40;99.90;;;;;;4942498;29;20223;-68
2023/02/02 05:29:41;;;;;;;1.15;0.63;;;5.30;99.90;;;;;;4947525;29;20620;-69
2023/02/02 05:32:08;;;;;;;5.45;1.42;;;5.40;99.90;;;;;;4940230;29;20202;-68
2023/02/02 05:34:34;;;;;;;0.35;0.35;;;5.40;99.90;;;;;;4935701;28;20721;-68
2023/02/02 05:37:03;;;;;;;0.10;0.10;;;5.30;99.90;;;;;;4936470;28;20215;-69
2023/02/02 05:39:29;;;;;;;0.10;0.10;;;5.30;99.90;;;;;;4938965;29;20868;-69
2023/02/02 05:41:56;;;;;;;1.33;0.68;;;5.30;99.90;;;;;;4934230;29;20295;-68
2023/02/02 05:44:23;;;;;;;0.20;0.20;;;5.30;99.90;;;;;;4939463;29;20223;-68
2023/02/02 05:46:49;;;;;;;1.23;0.52;;;5.30;99.90;;;;;;4934101;29;20213;-68
2023/02/02 05:49:16;;;;;;;0.20;0.20;;;5.30;99.90;;;;;;4935048;29;20209;-68
2023/02/02 05:51:46;;;;;;;0.80;0.30;;;5.30;99.90;;;;;;4934301;29;20219;-68
2023/02/02 05:54:18;;;;;;;1.30;0.60;;;5.30;99.90;;;;;;4931723;29;20225;-69
2023/02/02 05:56:45;;;;;;;1.48;1.38;;;5.40;99.90;;;;;;4932759;29;20341;-69
2023/02/02 05:59:11;;;;;;;2.40;0.38;;;5.40;99.90;;;;;;4935644;29;20595;-69
2023/02/02 06:01:38;;;;;;;0.20;0.20;;;5.40;99.90;;;;;;4939184;29;20210;-69
2023/02/02 06:04:05;;;;;;;9.65;2.35;;;5.40;99.90;;;;;;4938451;29;20206;-69
2023/02/02 06:06:34;;;;;;;1.33;0.68;;;5.40;99.90;;;;;;4934208;29;20207;-69
2023/02/02 06:09:01;;;;;;;1.23;0.43;;;5.40;99.90;;;;;;4934577;29;20221;-68
2023/02/02 06:11:29;;;;;;;0.35;0.35;;;5.40;99.90;;;;;;4933668;29;20578;-69
2023/02/02 06:13:56;;;;;;;0.30;0.30;;;5.30;99.90;;;;;;4937554;29;20222;-68
2023/02/02 06:16:23;;;;;;;3.03;0.68;;;5.30;99.90;;;;;;4934993;29;20230;-68
2023/02/02 06:18:49;;;;;;;0.90;0.80;;;5.30;99.90;;;;;;4934880;29;20701;-69
2023/02/02 06:21:18;;;;;;;0.75;0.75;;;5.30;99.90;;;;;;4933340;29;20578;-69
2023/02/02 06:23:45;;;;;;;0.40;0.40;;;5.30;99.90;;;;;;4933612;29;20288;-68
2023/02/02 06:26:12;;;;;;;0.20;0.20;;;5.30;99.90;;;;;;4934043;29;20856;-68
2023/02/02 06:28:40;;;;;;;0.57;0.57;;;5.30;99.90;;;;;;4936738;29;20206;-69
2023/02/02 06:31:09;;;;;;;0.20;0.20;;;5.30;99.90;;;;;;4934594;29;20674;-69
2023/02/02 06:33:36;;;;;;;0.57;0.57;;;5.30;99.90;;;;;;4938811;29;20226;-68
2023/02/02 06:36:06;;;;;;;0.85;0.85;;;5.40;99.90;;;;;;4934483;29;20235;-69
2023/02/02 06:38:33;;;;;;;1.20;0.77;;;5.40;99.90;;;;;;4934504;29;20222;-68
2023/02/02 06:40:59;;;;;;;1.60;1.60;;;5.40;99.90;;;;;;4932963;29;20565;-69
2023/02/02 06:43:26;;;;;;;10.52;1.92;;;5.40;99.90;;;;;;4933958;29;20211;-68
2023/02/02 06:45:56;;;;;;;18.65;1.48;;;5.40;99.90;;;;;;4933746;29;20237;-68
2023/02/02 06:48:23;;;;;;;0.88;0.88;;;5.40;99.90;;;;;;4934324;29;20218;-68
2023/02/02 06:50:50;;;;;;;0.40;0.30;;;5.50;99.90;;;;;;4938431;29;20781;-68
2023/02/02 06:53:21;;;;;;;0.35;0.35;;;5.40;99.90;;;;;;4936020;29;20670;-68
2023/02/02 06:55:53;;;;;;;1.42;1.23;;;5.40;99.90;;;;;;4935084;29;20560;-68
2023/02/02 06:58:19;;;;;;;11.20;2.30;;;5.50;99.90;;;;;;4932380;29;20697;-68
2023/02/02 07:00:47;;;;;;;2.28;1.40;;;5.50;99.90;;;;;;4931362;29;20211;-68
2023/02/02 07:03:15;;;;;;;0.82;0.82;;;5.40;99.90;;;;;;4929034;29;20210;-67
2023/02/02 07:05:41;;;;;;;0.65;0.65;;;5.40;99.90;;;;;;4932946;29;20223;-68
2023/02/02 07:08:08;;;;;;;1.60;1.27;;;5.40;99.90;;;;;;4934558;29;20602;-68
2023/02/02 07:10:37;;;;;;;2.92;1.65;;;5.40;99.90;;;;;;4937849;28;20207;-68
2023/02/02 07:13:05;;;;;;;1.02;0.93;;;5.40;99.90;;;;;;4932760;29;20218;-68
2023/02/02 07:15:32;;;;;;;1.13;1.00;;;5.40;99.90;;;;;;4932223;29;20234;-68
2023/02/02 07:17:59;;;;;;;1.42;1.10;;;5.40;99.90;;;;;;4933564;29;20211;-69
2023/02/02 07:20:28;;;;;;;0.95;0.70;;;5.40;99.90;;;;;;4933528;29;20218;-68
2023/02/02 07:22:54;;;;;;;0.20;0.20;;;5.40;99.90;;;;;;4935915;29;20214;-69
2023/02/02 07:25:21;;;;;;;0.73;0.73;;;5.40;99.90;;;;;;4931747;29;20513;-69
2023/02/02 07:27:52;;;;;;;1.13;1.13;;;5.40;99.90;;;;;;4933336;29;20678;-68
2023/02/02 07:30:19;;;;;;;1.58;1.52;;;5.40;99.90;;;;;;4932976;29;20211;-68
2023/02/02 07:32:47;;;;;;;16.20;1.60;;;5.40;99.90;;;;;;4936453;29;20542;-68
2023/02/02 07:35:14;;;;;;;2.55;0.88;;;5.40;99.90;;;;;;4933340;29;20231;-68
2023/02/02 07:37:42;;;;;;;0.20;0.20;;;5.50;99.90;;;;;;4936061;29;20548;-67
2023/02/02 07:40:10;;;;;;;0.80;0.65;;;5.50;99.90;;;;;;4931805;28;20209;-67
2023/02/02 07:42:37;;;;;;;1.50;1.45;;;5.60;99.90;;;;;;4930865;29;20288;-67
2023/02/02 07:45:05;;;;;;;8.23;1.52;;;5.60;99.90;;;;;;4932044;28;20237;-67
2023/02/02 07:47:31;;;;;;;2.60;0.77;;;5.60;99.90;;;;;;4935686;29;20663;-67
2023/02/02 07:49:58;;;;;;;0.80;0.80;;;5.60;99.90;;;;;;4934420;28;20234;-68
2023/02/02 07:52:25;;;;;;;8.90;1.17;;;5.60;99.90;;;;;;4934407;29;20217;-67
2023/02/02 07:54:53;;;;;;;0.10;0.10;;;5.60;99.90;;;;;;4934048;29;20626;-66
2023/02/02 07:57:20;;;;;;;2.58;1.50;;;5.50;99.90;;;;;;4936044;29;20249;-67
2023/02/02 07:59:49;;;;;;;1.45;0.75;;;5.50;99.90;;;;;;4933992;28;20214;-67
2023/02/02 08:02:15;;;;;;;1.75;1.67;;;5.50;99.90;;;;;;4934575;29;20218;-67
2023/02/02 08:04:42;;;;;;;2.50;1.40;;;5.40;99.90;;;;;;4935667;29;20232;-66
2023/02/02 08:07:09;;;;;;;0.70;0.70;;;5.40;99.90;;;;;;4937490;29;20266;-67
2023/02/02 08:09:36;;;;;;;3.40;1.88;;;5.50;99.90;;;;;;4936090;29;20211;-67
2023/02/02 08:12:04;;;;;;;8.20;1.25;;;5.40;99.90;;;;;;4935775;29;20206;-67
2023/02/02 08:14:32;;;;;;;1.98;1.25;;;5.50;99.90;;;;;;4936174;29;20257;-66
2023/02/02 08:16:58;;;;;;;0.55;0.55;;;5.50;99.90;;;;;;4937074;29;20227;-68
2023/02/02 08:19:25;;;;;;;7.43;1.75;;;5.40;99.90;;;;;;4937020;29;20215;-68
2023/02/02 08:21:52;;;;;;;1.65;1.55;;;5.50;99.90;;;;;;4936629;29;20217;-67
2023/02/02 08:24:18;;;;;;;0.75;0.73;;;5.40;99.90;;;;;;4938250;29;20219;-68
2023/02/02 08:26:45;;;;;;;0.35;0.35;;;5.50;99.90;;;;;;4936670;29;20213;-68
2023/02/02 08:29:16;;;;;;;0.85;0.60;;;5.50;99.90;;;;;;4931236;29;20202;-68
2023/02/02 08:31:44;;;;;;;6.18;0.65;;;5.60;99.90;;;;;;4936032;29;20213;-68
2023/02/02 08:34:12;;;;;;;1.25;0.98;;;5.70;99.90;;;;;;4933081;29;20225;-68
2023/02/02 08:36:40;;;;;;;10.32;0.95;;;5.70;99.90;;;;;;4932852;29;20227;-68
2023/02/02 08:39:08;;;;;;;1.65;1.33;;;5.70;99.90;;;;;;4932697;29;20219;-67
2023/02/02 08:41:36;;;;;;;5.55;2.35;;;5.70;99.90;;;;;;4929187;29;20212;-67
2023/02/02 08:44:05;;;;;;;2.03;1.58;;;5.80;99.90;;;;;;4931520;29;20289;-68
2023/02/02 08:46:33;;;;;;;27.10;2.08;;;5.80;99.90;;;;;;4931456;29;20226;-68
2023/02/02 08:49:00;;;;;;;1.45;1.35;;;5.80;99.90;;;;;;4936217;28;20277;-68
2023/02/02 08:51:27;;;;;;;1.65;0.90;;;5.80;99.90;;;;;;4931125;29;20206;-68
2023/02/02 08:53:54;;;;;;;2.05;2.05;;;5.90;99.90;;;;;;4931710;29;20569;-69
2023/02/02 08:56:22;;;;;;;2.03;1.92;;;5.90;99.90;;;;;;4929699;29;20242;-68
2023/02/02 08:58:50;;;;;;;1.67;0.88;;;5.90;99.90;;;;;;4931886;29;20204;-68
2023/02/02 09:01:19;;;;;;;0.75;0.75;;;5.90;99.90;;;;;;4941414;29;20222;-69
2023/02/02 09:03:47;;;;;;;2.47;0.68;;;5.90;99.90;;;;;;4943404;29;20207;-69
2023/02/02 09:06:16;;;;;;;1.55;0.75;;;6.00;99.90;;;;;;4935327;29;20228;-68
2023/02/02 09:08:43;;;;;;;0.65;0.65;;;6.00;99.90;;;;;;4936107;29;20207;-68
2023/02/02 09:11:12;;;;;;;6.65;1.48;;;6.00;99.90;;;;;;4937374;29;20288;-67
2023/02/02 09:13:40;;;;;;;2.90;1.95;;;6.10;99.90;;;;;;4937498;29;20210;-68
2023/02/02 09:16:09;;;;;;;1.30;1.23;;;6.10;99.90;;;;;;4937300;29;20242;-69
2023/02/02 09:18:36;;;;;;;2.38;0.85;;;6.10;99.90;;;;;;4935916;29;20268;-69
2023/02/02 09:21:07;;;;;;;2.92;1.30;;;6.10;99.90;;;;;;4938280;29;20211;-68
2023/02/02 09:23:35;;;;;;;1.27;0.60;;;6.20;99.90;;;;;;4939801;29;20289;-68
2023/02/02 09:26:09;;;;;;;4.35;2.83;;;6.20;99.90;;;;;;4936664;29;20219;-68
2023/02/02 09:28:36;;;;;;;2.20;1.00;;;6.20;99.90;;;;;;4932163;29;20288;-68
2023/02/02 09:31:02;;;;;;;4.90;2.50;;;6.30;99.90;;;;;;4944701;29;20207;-68
2023/02/02 09:33:29;;;;;;;7.75;1.55;;;6.30;99.90;;;;;;4929587;29;20216;-68
2023/02/02 09:35:56;;;;;;;2.38;1.92;;;6.30;99.90;;;;;;4931269;29;20230;-68
2023/02/02 09:38:24;;;;;;;1.20;0.80;;;6.30;99.90;;;;;;4936903;29;20682;-68
2023/02/02 09:40:51;;;;;;;3.58;1.98;;;6.30;99.90;;;;;;4934727;29;20219;-68
2023/02/02 09:43:36;;;;;;;2.13;2.03;;;6.30;99.90;;;;;;4936550;29;20203;-68
2023/02/02 09:46:14;;;;;;;1.02;1.02;;;6.30;99.90;;;;;;4931989;29;20660;-68
2023/02/02 09:48:50;;;;;;;1.52;0.85;;;6.40;99.90;;;;;;4935661;29;20212;-68
2023/02/02 09:51:21;;;;;;;6.03;1.95;;;6.50;99.90;;;;;;4928050;29;20230;-68
2023/02/02 09:53:53;;;;;;;0.90;0.50;;;6.60;99.90;;;;;;4936264;29;20221;-68
2023/02/02 09:56:26;;;;;;;21.10;1.90;;;6.70;99.90;;;;;;4929694;29;20232;-68
2023/02/02 09:58:55;;;;;;;2.55;0.50;;;6.70;99.90;;;;;;4935221;29;20217;-68
2023/02/02 10:01:25;;;;;;;0.60;0.60;;;6.80;99.90;;;;;;4932983;29;20664;-68
2023/02/02 10:04:00;;;;;;;1.45;0.95;;;6.80;99.90;;;;;;4933708;29;20657;-68
2023/02/02 10:06:35;;;;;;;1.58;0.75;;;6.80;99.90;;;;;;4939047;29;20605;-68
2023/02/02 10:09:11;;;;;;;15.70;1.40;;;6.80;99.90;;;;;;4932193;29;20211;-68
2023/02/02 10:11:45;;;;;;;8.30;2.40;;;6.80;99.90;;;;;;4933283;29;20218;-68
2023/02/02 10:14:18;;;;;;;18.75;0.75;;;6.80;99.90;;;;;;4938600;29;20214;-67
2023/02/02 10:16:49;;;;;;;0.82;0.80;;;6.80;99.90;;;;;;4935426;29;20259;-67
2023/02/02 10:19:16;;;;;;;7.30;3.08;;;6.80;99.90;;;;;;4937740;29;20207;-67
2023/02/02 10:21:51;;;;;;;2.95;0.73;;;6.90;99.90;;;;;;4933682;29;20287;-68
2023/02/02 10:24:22;;;;;;;6.07;2.03;;;6.90;99.90;;;;;;4927508;29;20207;-68
2023/02/02 10:26:53;;;;;;;5.60;0.77;;;6.90;99.90;;;;;;4933457;29;20219;-68
2023/02/02 10:29:32;;;;;;;1.08;0.55;;;6.90;99.90;;;;;;4934282;29;20211;-70
2023/02/02 10:32:06;;;;;;;0.43;0.43;;;6.90;99.90;;;;;;4936238;29;20257;-70
2023/02/02 10:34:37;;;;;;;0.30;0.30;;;6.90;99.90;;;;;;4932476;29;20231;-69
2023/02/02 10:37:26;;;;;;;0.93;0.93;;;6.90;99.90;;;;;;4934807;29;20548;-69
2023/02/02 10:40:10;;;;;;;0.63;0.55;;;6.90;99.90;;;;;;4934487;29;20597;-68
2023/02/02 10:43:44;;;;;;;5.85;2.35;;;7.00;99.90;;;;;;4938310;29;20238;-68
2023/02/02 10:45:35;;;;;;;3.55;1.35;;;7.10;99.90;;;;;;4934604;29;20228;-69
2023/02/02 10:48:05;;;;;;;0.35;0.35;;;7.20;99.90;;;;;;4937685;29;20214;-67
2023/02/02 10:50:32;;;;;;;0.75;0.75;;;7.20;99.90;;;;;;4932490;29;20218;-68
2023/02/02 10:53:02;;;;;;;0.40;0.40;;;7.30;99.90;;;;;;4939243;28;20214;-68
2023/02/02 10:55:37;;;;;;;1.15;0.95;;;7.30;99.90;;;;;;4933786;29;20341;-68
2023/02/02 10:58:13;;;;;;;3.10;1.30;;;7.30;99.90;;;;;;4933247;29;20257;-68
2023/02/02 11:00:45;;;;;;;16.70;1.50;;;7.40;99.90;;;;;;4935055;29;20208;-68
2023/02/02 11:03:14;;;;;;;0.35;0.35;;;7.40;99.90;;;;;;4934674;29;20207;-68
2023/02/02 11:08:32;;;;;;;5.78;1.48;;;7.70;99.90;;;;;;4936386;29;20328;-67
2023/02/02 11:11:11;;;;;;;0.10;0.10;;;7.60;99.90;;;;;;4933935;29;20316;-67
2023/02/02 11:13:42;;;;;;;2.53;2.33;;;7.40;99.90;;;;;;4933689;29;20651;-67
2023/02/02 11:16:34;;;;;;;0.20;0.20;;;7.50;99.90;;;;;;4942560;28;20323;-68
2023/02/02 11:19:01;;;;;;;1.45;0.45;;;7.60;99.90;;;;;;4924817;28;20212;-67
2023/02/02 11:21:29;;;;;;;0.88;0.60;;;7.50;99.90;;;;;;4931962;29;20204;-67
2023/02/02 11:24:00;;;;;;;1.48;1.38;;;7.50;99.90;;;;;;4933231;29;20222;-69
2023/02/02 11:26:42;;;;;;;0.98;0.95;;;7.50;99.90;;;;;;4935643;29;20827;-69
2023/02/02 11:29:14;;;;;;;3.47;0.38;;;7.50;99.90;;;;;;4934073;29;20237;-69
2023/02/02 11:31:41;;;;;;;0.38;0.38;;;7.40;99.90;;;;;;4933487;29;20669;-68
2023/02/02 11:34:15;;;;;;;1.90;1.25;;;7.30;99.90;;;;;;4933855;29;20214;-68
2023/02/02 11:36:58;;;;;;;0.55;0.38;;;7.40;99.90;;;;;;4934157;29;20675;-68
2023/02/02 11:39:25;;;;;;;0.20;0.20;;;7.40;99.90;;;;;;4928930;29;20214;-67
2023/02/02 11:41:59;;;;;;;0.10;0.10;;;7.50;99.90;;;;;;4935847;28;20665;-68
2023/02/02 11:44:28;;;;;;;0.47;0.47;;;7.30;99.90;;;;;;4934048;29;20231;-68
2023/02/02 11:46:56;;;;;;;2.15;1.20;;;7.50;99.90;;;;;;4933924;29;20638;-69
2023/02/02 11:49:23;;;;;;;0.17;0.17;;;7.60;99.90;;;;;;4935176;29;20224;-68
2023/02/02 11:51:58;;;;;;;0.52;0.52;;;7.70;99.90;;;;;;4932964;29;20250;-68
2023/02/02 11:54:29;;;;;;;0.63;0.63;;;7.60;99.90;;;;;;4933361;29;20231;-68
2023/02/02 11:57:00;;;;;;;0.20;0.20;;;7.50;99.90;;;;;;4937145;29;20243;-68
2023/02/02 11:59:32;;;;;;;0.30;0.30;;;7.60;99.90;;;;;;4936331;29;20212;-69
2023/02/02 12:02:24;;;;;;;12.70;0.68;;;7.60;99.90;;;;;;4938844;29;20210;-69
2023/02/02 12:04:52;;;;;;;0.90;0.65;;;7.60;99.90;;;;;;4935491;28;20232;-69
2023/02/02 12:07:25;;;;;;;2.13;1.85;;;7.60;99.90;;;;;;4933094;29;20239;-69
2023/02/02 12:09:52;;;;;;;0.63;0.63;;;7.60;99.90;;;;;;4945060;29;20219;-70
2023/02/02 12:12:38;;;;;;;0.20;0.20;;;7.70;99.90;;;;;;4933963;29;20284;-69
2023/02/02 12:15:19;;;;;;;0.50;0.50;;;7.70;99.90;;;;;;4924328;29;20795;-68
2023/02/02 12:17:48;;;;;;;1.75;0.52;;;7.80;99.90;;;;;;4931027;29;20320;-69
2023/02/02 12:20:22;;;;;;;3.80;1.65;;;7.80;99.90;;;;;;4934130;29;20685;-68
2023/02/02 12:23:26;;;;;;;0.77;0.50;;;7.90;99.90;;;;;;4933007;29;20211;-69
2023/02/02 12:26:11;;;;;;;13.43;0.90;;;7.90;99.90;;;;;;4932480;29;20570;-69
2023/02/02 12:29:11;;;;;;;0.30;0.30;;;7.90;99.90;;;;;;4927749;29;20208;-69
2023/02/02 12:31:51;;;;;;;0.60;0.60;;;7.80;99.90;;;;;;4931903;29;20354;-69
2023/02/02 12:34:29;;;;;;;0.30;0.30;;;7.70;99.90;;;;;;4932174;29;20211;-69
2023/02/02 12:37:02;;;;;;;0.77;0.77;;;7.70;99.90;;;;;;4934574;29;20666;-69
2023/02/02 12:39:34;;;;;;;4.50;0.75;;;7.70;99.90;;;;;;4932328;29;20763;-69
2023/02/02 12:42:25;;;;;;;0.20;0.20;;;7.70;99.90;;;;;;4931034;29;20692;-69
2023/02/02 12:45:08;;;;;;;0.95;0.93;;;7.80;99.90;;;;;;4937958;28;20671;-69
2023/02/02 12:47:44;;;;;;;1.95;0.80;;;7.90;99.90;;;;;;4938294;29;20208;-69
2023/02/02 12:50:24;;;;;;;0.55;0.55;;;7.90;99.90;;;;;;4938892;29;20735;-69
2023/02/02 12:53:10;;;;;;;0.50;0.50;;;8.00;99.90;;;;;;4933439;29;20668;-69
2023/02/02 12:55:43;;;;;;;5.00;1.10;;;8.00;99.90;;;;;;4936980;29;20726;-68
2023/02/02 12:58:18;;;;;;;1.83;1.20;;;7.90;99.90;;;;;;4940680;29;20222;-68
2023/02/02 13:01:02;;;;;;;1.15;0.77;;;7.90;99.90;;;;;;4939177;29;20296;-68
2023/02/02 13:03:42;;;;;;;0.50;0.50;;;7.90;99.90;;;;;;4932010;29;20525;-68
2023/02/02 13:06:30;;;;;;;3.88;0.95;;;7.90;99.90;;;;;;4935774;29;20236;-68
2023/02/02 13:09:03;;;;;;;0.30;0.30;;;7.90;99.90;;;;;;4934759;29;20216;-68
2023/02/02 13:11:39;;;;;;;0.73;0.73;;;7.90;99.90;;;;;;4936205;29;20552;-68
2023/02/02 13:14:11;;;;;;;0.40;0.40;;;7.90;99.90;;;;;;4932607;29;20216;-68
2023/02/02 13:16:47;;;;;;;1.15;1.10;;;7.90;99.90;;;;;;4935767;29;20216;-68
2023/02/02 13:19:20;;;;;;;2.15;2.05;;;7.90;99.90;;;;;;4933296;29;20294;-68
2023/02/02 13:21:49;;;;;;;3.92;1.25;;;8.20;99.90;;;;;;4935462;29;20233;-67
2023/02/02 13:24:24;;;;;;;2.17;0.90;;;8.70;99.90;;;;;;4922683;29;20287;-68
2023/02/02 13:26:51;;;;;;;0.85;0.85;;;7.90;99.90;;;;;;4940096;29;20683;-68
2023/02/02 13:29:27;;;;;;;2.80;1.45;;;7.90;99.90;;;;;;4938221;29;20207;-71
2023/02/02 13:32:01;;;;;;;2.42;1.83;;;7.80;99.90;;;;;;4937849;29;20225;-68
2023/02/02 13:34:40;;;;;;;2.55;2.45;;;7.80;99.90;;;;;;4941555;29;20224;-67
2023/02/02 13:37:16;;;;;;;1.20;1.20;;;7.80;99.90;;;;;;4940176;29;20579;-68
2023/02/02 13:39:47;;;;;;;3.05;1.05;;;8.00;99.90;;;;;;4935229;29;20213;-68
2023/02/02 13:42:23;;;;;;;1.90;1.80;;;7.70;99.90;;;;;;4937227;29;20534;-68
2023/02/02 13:44:57;;;;;;;0.30;0.30;;;7.70;99.90;;;;;;4939075;29;20246;-68
2023/02/02 13:47:36;;;;;;;0.50;0.50;;;7.70;99.90;;;;;;4939108;29;20208;-68
2023/02/02 13:50:10;;;;;;;4.53;1.00;;;8.50;99.90;;;;;;4939656;29;20220;-68
2023/02/02 13:52:55;;;;;;;13.10;6.20;;;7.70;99.90;;;;;;4938820;29;20208;-68
2023/02/02 13:55:55;;;;;;;3.42;1.63;;;7.60;99.90;;;;;;4933000;29;20254;-68
2023/02/02 13:59:02;;;;;;;1.20;1.20;;;7.60;99.90;;;;;;4926296;29;20223;-67
2023/02/02 14:01:31;;;;;;;0.93;0.93;;;7.60;99.90;;;;;;4879237;29;20210;-68
2023/02/02 14:04:00;;;;;;;2.17;2.08;;;7.60;99.90;;;;;;4927386;28;20237;-68
2023/02/02 14:06:29;;;;;;;6.03;3.00;;;7.60;99.90;;;;;;4934869;29;20229;-69
2023/02/02 14:08:58;;;;;;;1.73;1.63;;;7.60;99.90;;;;;;4934625;29;20694;-69
2023/02/02 14:11:28;;;;;;;8.82;2.42;;;7.60;99.90;;;;;;4934566;29;20211;-69
2023/02/02 14:16:52;;;;;;;1.10;1.10;;;7.60;99.90;;;;;;4932717;29;20215;-69
2023/02/02 14:19:49;;;;;;;2.47;2.38;;;7.60;99.90;;;;;;4930256;29;20309;-68
2023/02/02 14:22:42;;;;;;;0.80;0.80;;;7.60;99.90;;;;;;4930867;29;20223;-67
2023/02/02 14:25:47;;;;;;;7.70;1.27;;;7.60;99.90;;;;;;4929537;29;20561;-68
2023/02/02 14:28:55;;;;;;;2.45;0.30;;;7.60;99.90;;;;;;4938089;29;20599;-68
2023/02/02 14:31:52;;;;;;;1.95;0.85;;;7.60;99.90;;;;;;4933604;29;20232;-68
2023/02/02 14:34:33;;;;;;;0.52;0.52;;;7.60;99.90;;;;;;4933911;29;20236;-69
2023/02/02 14:37:41;;;;;;;0.35;0.35;;;7.60;99.90;;;;;;4929937;29;20213;-68
2023/02/02 14:40:26;;;;;;;0.63;0.63;;;7.60;99.90;;;;;;4927019;29;20216;-68
2023/02/02 14:46:23;;;;;;;0.68;0.68;;;7.50;99.90;;;;;;4940502;28;20233;-67
2023/02/02 14:49:13;;;;;;;0.88;0.75;;;7.50;99.90;;;;;;4934122;29;20219;-68
2023/02/02 14:51:48;;;;;;;4.03;1.48;;;7.40;99.90;;;;;;4930015;29;20207;-68
2023/02/02 14:54:23;;;;;;;0.30;0.30;;;7.30;99.90;;;;;;4925425;29;20303;-68
2023/02/02 14:56:53;;;;;;;2.15;0.63;;;7.30;99.90;;;;;;4933076;29;20246;-68
2023/02/02 14:59:24;;;;;;;0.20;0.20;;;7.20;99.90;;;;;;4933092;29;20257;-68
2023/02/02 15:02:01;;;;;;;0.20;0.20;;;7.20;99.90;;;;;;4931223;29;20212;-68
2023/02/02 15:04:29;;;;;;;0.30;0.30;;;7.20;99.90;;;;;;4934071;28;20326;-68
2023/02/02 15:07:16;;;;;;;1.38;0.60;;;7.10;99.90;;;;;;4939410;28;20271;-67
2023/02/02 15:09:44;;;;;;;0.17;0.17;;;7.10;99.90;;;;;;4942296;28;20211;-68
2023/02/02 15:12:29;;;;;;;0.82;0.30;;;7.10;99.90;;;;;;4935114;28;20582;-67
2023/02/02 15:15:09;;;;;;;0.90;0.90;;;7.10;99.90;;;;;;4941722;29;20243;-67
2023/02/02 15:17:48;;;;;;;0.40;0.40;;;7.00;99.90;;;;;;4935030;29;20273;-68
2023/02/02 15:20:22;;;;;;;1.70;0.63;;;7.00;99.90;;;;;;4927255;29;20219;-68
2023/02/02 15:22:55;;;;;;;1.15;0.40;;;6.90;99.90;;;;;;4941874;28;20221;-68
2023/02/02 15:25:25;;;;;;;0.95;0.40;;;6.90;99.90;;;;;;4931442;29;20226;-69
2023/02/02 15:27:59;;;;;;;10.27;0.85;;;6.90;99.90;;;;;;4939217;29;20208;-68
2023/02/02 15:30:28;;;;;;;14.93;1.38;;;6.80;99.90;;;;;;4939859;29;20673;-68
2023/02/02 15:32:57;;;;;;;2.97;0.70;;;6.80;99.90;;;;;;4940779;29;20216;-68
2023/02/02 15:35:30;;;;;;;1.92;0.93;;;6.70;99.90;;;;;;4941921;29;20279;-69
2023/02/02 15:38:00;;;;;;;3.10;2.15;;;6.70;99.90;;;;;;4942467;29;20253;-69
2023/02/02 15:40:31;;;;;;;1.10;1.10;;;6.70;99.90;;;;;;4929690;29;20247;-69
2023/02/02 15:43:04;;;;;;;1.08;1.05;;;6.60;99.90;;;;;;4932938;29;20243;-68
2023/02/02 15:45:47;;;;;;;1.10;1.02;;;6.60;99.90;;;;;;4935906;29;20223;-68
2023/02/02 15:48:28;;;;;;;0.50;0.47;;;6.50;99.90;;;;;;4931957;29;20211;-69
2023/02/02 15:50:56;;;;;;;0.47;0.47;;;6.50;99.90;;;;;;4939093;29;20273;-68
2023/02/02 15:53:26;;;;;;;6.25;1.30;;;6.40;99.90;;;;;;4930032;29;20212;-69
2023/02/02 15:55:54;;;;;;;3.25;0.47;;;6.40;99.90;;;;;;4936108;28;20231;-69
2023/02/02 15:58:29;;;;;;;0.40;0.40;;;6.30;99.90;;;;;;4934310;29;20568;-68
2023/02/02 16:00:58;;;;;;;2.47;1.50;;;6.20;99.90;;;;;;4934878;28;20222;-68
2023/02/02 16:03:33;;;;;;;0.10;0.10;;;6.20;99.90;;;;;;4933354;29;20215;-67
2023/02/02 16:06:00;;;;;;;0.20;0.20;;;6.10;99.90;;;;;;4933160;29;20239;-68
2023/02/02 16:08:33;;;;;;;0.52;0.38;;;6.10;99.90;;;;;;4937623;29;20545;-68
2023/02/02 16:11:06;;;;;;;3.38;0.40;;;6.00;99.90;;;;;;4931606;29;20215;-68
2023/02/02 16:13:33;;;;;;;2.78;0.77;;;6.00;99.90;;;;;;4928673;29;20208;-67
2023/02/02 16:16:02;;;;;;;1.30;1.20;;;6.00;99.90;;;;;;4932713;29;20325;-68
2023/02/02 16:18:30;;;;;;;0.20;0.20;;;5.90;99.90;;;;;;4931069;29;20228;-68
2023/02/02 16:21:00;;;;;;;0.35;0.35;;;5.90;99.90;;;;;;4931658;28;20206;-68
2023/02/02 16:23:30;;;;;;;1.92;1.20;;;5.80;99.90;;;;;;4930516;29;20215;-67
2023/02/02 16:26:00;;;;;;;0.80;0.80;;;5.80;99.90;;;;;;4932099;29;20239;-69
2023/02/02 16:28:27;;;;;;;2.70;1.40;;;5.70;99.90;;;;;;4931021;29;20202;-68
2023/02/02 16:30:54;;;;;;;0.52;0.52;;;5.70;99.90;;;;;;4932673;29;20295;-69
2023/02/02 16:33:36;;;;;;;7.97;1.48;;;5.70;99.90;;;;;;4929414;29;20206;-67
2023/02/02 16:36:15;;;;;;;2.40;2.28;;;5.60;99.90;;;;;;4931095;29;20712;-67
2023/02/02 16:38:42;;;;;;;2.60;2.40;;;5.60;99.90;;;;;;4936134;29;20219;-68
2023/02/02 16:41:11;;;;;;;3.70;2.72;;;5.50;99.90;;;;;;4934313;29;20291;-68
2023/02/02 16:43:40;;;;;;;1.77;1.58;;;5.50;99.90;;;;;;4929917;29;20209;-68
2023/02/02 16:46:09;;;;;;;3.38;2.25;;;5.50;99.90;;;;;;4931563;29;20238;-68
2023/02/02 16:48:39;;;;;;;2.08;1.98;;;5.40;99.90;;;;;;4934382;29;20206;-68
2023/02/02 16:51:25;;;;;;;1.23;1.20;;;5.30;99.90;;;;;;4935446;29;20210;-69
2023/02/02 16:53:59;;;;;;;1.70;1.60;;;5.30;99.90;;;;;;4931040;28;20206;-68
2023/02/02 16:56:30;;;;;;;0.52;0.52;;;5.30;99.90;;;;;;4926145;29;20225;-67
2023/02/02 16:59:01;;;;;;;1.05;1.05;;;5.30;99.90;;;;;;4925012;29;20225;-67
2023/02/02 17:01:35;;;;;;;2.08;2.08;;;5.20;99.90;;;;;;4932817;29;20210;-69
2023/02/02 17:04:07;;;;;;;2.65;2.55;;;5.20;99.90;;;;;;4936429;28;20207;-69
2023/02/02 17:06:36;;;;;;;3.30;1.42;;;5.20;99.90;;;;;;4934917;29;20204;-68
2023/02/02 17:09:27;;;;;;;2.28;2.15;;;5.10;99.90;;;;;;4935564;29;20203;-67
2023/02/02 17:12:00;;;;;;;1.85;0.95;;;5.00;99.90;;;;;;4933107;29;20219;-68
2023/02/02 17:14:31;;;;;;;4.05;3.78;;;5.30;99.90;;;;;;4939616;29;20243;-69
2023/02/02 17:16:58;;;;;;;10.38;2.90;;;5.10;99.90;;;;;;4933783;29;20207;-67
2023/02/02 17:19:29;;;;;;;15.02;4.60;;;5.00;99.90;;;;;;4941525;29;20222;-67
2023/02/02 17:21:57;;;;;;;5.53;5.05;;;5.00;99.90;;;;;;4936530;28;20225;-72
2023/02/02 17:24:24;;;;;;;9.50;4.50;;;4.90;99.90;;;;;;4939901;29;20211;-67
2023/02/02 17:26:51;;;;;;;2.95;2.85;;;4.90;99.90;;;;;;4937246;29;20213;-67
2023/02/02 17:29:19;;;;;;;6.47;2.33;;;4.90;99.90;;;;;;4935027;28;20209;-66
2023/02/02 17:31:46;;;;;;;2.00;1.98;;;4.80;99.90;;;;;;4936333;29;20222;-68
2023/02/02 17:34:14;;;;;;;2.22;2.08;;;4.80;99.90;;;;;;4937564;28;20218;-68
2023/02/02 17:36:43;;;;;;;2.22;2.17;;;4.80;99.90;;;;;;4942049;28;20231;-68
2023/02/02 17:39:10;;;;;;;4.45;2.42;;;4.70;99.90;;;;;;4939035;29;20235;-68
2023/02/02 17:41:37;;;;;;;3.50;2.38;;;4.70;99.90;;;;;;4935165;29;20241;-69
2023/02/02 17:44:04;;;;;;;6.20;3.10;;;4.70;99.90;;;;;;4940586;28;20218;-68
2023/02/02 17:46:31;;;;;;;3.35;3.05;;;4.70;99.90;;;;;;4937427;29;20230;-69
2023/02/02 17:48:59;;;;;;;2.72;2.63;;;4.70;99.90;;;;;;4936331;29;20210;-69
2023/02/02 17:51:25;;;;;;;6.60;5.25;;;4.70;99.90;;;;;;4940230;29;20221;-69
2023/02/02 17:53:58;;;;;;;6.95;6.43;;;4.70;99.90;;;;;;4939306;29;20309;-68
2023/02/02 17:56:25;;;;;;;1.65;1.55;;;4.70;99.90;;;;;;4936885;29;20314;-69
2023/02/02 17:58:52;;;;;;;2.88;2.67;;;4.70;99.90;;;;;;4944546;29;20226;-68
2023/02/02 18:01:18;;;;;;;7.32;1.33;;;4.70;99.90;;;;;;4946349;29;20215;-68
2023/02/02 18:03:46;;;;;;;1.73;1.55;;;4.70;99.90;;;;;;4941877;28;20213;-69
2023/02/02 18:06:13;;;;;;;2.55;2.30;;;4.70;99.90;;;;;;4939828;29;20258;-67
2023/02/02 18:08:40;;;;;;;2.67;1.48;;;4.80;99.90;;;;;;4944874;28;20218;-68
2023/02/02 18:11:11;;;;;;;3.72;3.00;;;4.70;99.90;;;;;;4940752;28;20678;-68
2023/02/02 18:13:38;;;;;;;13.02;7.95;;;4.80;99.90;;;;;;4938070;29;20220;-68
2023/02/02 18:16:06;;;;;;;9.82;8.18;;;4.70;99.90;;;;;;4940514;28;20257;-69
2023/02/02 18:18:32;;;;;;;5.43;4.72;;;4.80;99.90;;;;;;4947770;28;20202;-68
2023/02/02 18:20:59;;;;;;;6.00;4.25;;;4.80;99.90;;;;;;4934822;29;20243;-67
2023/02/02 18:23:26;;;;;;;4.35;2.17;;;4.80;99.90;;;;;;4933260;29;20251;-68
2023/02/02 18:25:54;;;;;;;1.98;1.98;;;4.80;99.90;;;;;;4938377;29;20330;-68
2023/02/02 18:28:22;;;;;;;6.38;4.47;;;4.80;99.90;;;;;;4936556;29;20301;-68
2023/02/02 18:30:49;;;;;;;2.65;2.55;;;4.80;99.90;;;;;;4940613;28;20207;-70